createdAt,value
2023-03-05T00:01:28.026Z,12.39
2023-03-05T00:03:58.356Z,12.30
2023-03-05T00:06:27.986Z,12.39
2023-03-05T00:08:58.277Z,12.63
2023-03-05T00:11:29.595Z,12.18
2023-03-05T00:13:58.420Z,12.50
2023-03-05T00:16:27.357Z,12.63
2023-03-05T00:18:58.067Z,12.36
2023-03-05T00:21:28.130Z,12.34
2023-03-05T00:23:57.109Z,12.57
2023-03-05T00:26:26.608Z,12.64
2023-03-05T00:28:56.266Z,12.67
2023-03-05T00:31:26.951Z,12.29
2023-03-05T00:33:57.926Z,12.35
2023-03-05T00:36:26.895Z,12.21
2023-03-05T00:38:55.747Z,12.42
2023-03-05T00:41:24.063Z,12.06
2023-03-05T00:43:52.212Z,12.55
2023-03-05T00:46:20.128Z,12.04
2023-03-05T00:48:48.147Z,12.03
2023-03-05T00:51:17.532Z,12.22
2023-03-05T00:53:45.742Z,12.51
2023-03-05T00:56:13.930Z,12.30
2023-03-05T00:58:42.107Z,12.13
2023-03-05T01:01:10.444Z,12.18
2023-03-05T01:03:38.492Z,12.05
2023-03-05T01:06:08.877Z,12.46
2023-03-05T01:08:38.805Z,12.53
2023-03-05T01:11:08.604Z,12.17
2023-03-05T01:13:36.902Z,12.14
2023-03-05T01:16:06.467Z,12.18
2023-03-05T01:18:34.863Z,12.22
2023-03-05T01:21:02.844Z,12.22
2023-03-05T01:23:30.815Z,12.63
2023-03-05T01:26:00.933Z,12.34
2023-03-05T01:28:29.869Z,12.61
2023-03-05T01:30:57.931Z,12.23
2023-03-05T01:33:25.904Z,12.24
2023-03-05T01:35:54.196Z,12.11
2023-03-05T01:38:22.339Z,12.41
2023-03-05T01:40:50.304Z,12.53
2023-03-05T01:43:27.530Z,12.42
2023-03-05T01:46:30.992Z,12.57
2023-03-05T01:49:24.822Z,12.55
2023-03-05T01:52:02.211Z,12.39
2023-03-05T01:54:34.724Z,12.24
2023-03-05T01:57:09.120Z,12.23
2023-03-05T01:59:42.522Z,12.27
2023-03-05T02:02:10.621Z,12.53
2023-03-05T02:04:43.616Z,12.62
2023-03-05T02:07:12.827Z,12.33
2023-03-05T02:09:41.264Z,12.22
2023-03-05T02:12:11.894Z,12.71
2023-03-05T02:14:43.551Z,12.70
2023-03-05T02:17:12.097Z,12.62
2023-03-05T02:19:51.534Z,12.69
2023-03-05T02:22:23.176Z,12.42
2023-03-05T02:24:51.841Z,12.69
2023-03-05T02:27:27.264Z,12.45
2023-03-05T02:29:55.716Z,12.40
2023-03-05T02:32:23.699Z,12.42
2023-03-05T02:34:51.696Z,12.35
2023-03-05T02:37:21.283Z,12.29
2023-03-05T02:39:49.302Z,12.58
2023-03-05T02:42:17.412Z,12.31
2023-03-05T02:44:45.291Z,12.34
2023-03-05T02:47:13.308Z,12.24
2023-03-05T02:49:41.567Z,12.39
2023-03-05T02:52:09.804Z,12.58
2023-03-05T02:54:39.262Z,12.58
2023-03-05T02:57:07.331Z,12.17
2023-03-05T02:59:35.242Z,12.40
2023-03-05T03:02:03.601Z,12.76
2023-03-05T03:04:31.604Z,12.41
2023-03-05T03:06:59.646Z,12.66
2023-03-05T03:09:27.790Z,12.71
2023-03-05T03:11:57.249Z,12.77
2023-03-05T03:14:25.134Z,12.33
2023-03-05T03:16:53.083Z,12.29
2023-03-05T03:19:20.940Z,12.78
2023-03-05T03:21:49.952Z,12.36
2023-03-05T03:24:17.997Z,12.53
2023-03-05T03:26:46.521Z,12.32
2023-03-05T03:29:15.941Z,12.79
2023-03-05T03:31:45.616Z,12.49
2023-03-05T03:34:15.080Z,12.44
2023-03-05T03:36:43.609Z,12.84
2023-03-05T03:39:14.061Z,12.35
2023-03-05T03:41:43.856Z,12.91
2023-03-05T03:44:12.335Z,12.81
2023-03-05T03:46:42.339Z,12.88
2023-03-05T03:49:16.577Z,12.40
2023-03-05T03:51:44.690Z,12.71
2023-03-05T03:54:12.795Z,12.87
2023-03-05T03:56:40.703Z,12.85
2023-03-05T03:59:08.975Z,12.56
2023-03-05T04:01:37.463Z,12.41
2023-03-05T04:04:07.361Z,12.55
2023-03-05T04:06:35.770Z,12.49
2023-03-05T04:09:04.662Z,12.77
2023-03-05T04:11:32.758Z,12.70
2023-03-05T04:14:00.662Z,12.62
2023-03-05T04:16:28.724Z,12.42
2023-03-05T04:18:56.642Z,12.59
2023-03-05T04:21:26.103Z,12.83
2023-03-05T04:23:54.203Z,12.67
2023-03-05T04:26:22.178Z,12.39
2023-03-05T04:28:50.188Z,12.88
2023-03-05T04:31:20.620Z,13.01
2023-03-05T04:33:48.672Z,12.69
2023-03-05T04:36:16.784Z,13.00
2023-03-05T04:38:46.453Z,12.58
2023-03-05T04:41:14.311Z,12.64
2023-03-05T04:43:42.274Z,13.12
2023-03-05T04:46:10.386Z,12.66
2023-03-05T04:48:38.432Z,13.12
2023-03-05T04:51:06.930Z,13.19
2023-03-05T04:53:35.342Z,13.11
2023-03-05T04:56:05.143Z,13.21
2023-03-05T04:58:33.089Z,12.73
2023-03-05T05:01:05.517Z,12.67
2023-03-05T05:03:33.991Z,13.21
2023-03-05T05:06:02.698Z,12.95
2023-03-05T05:08:31.028Z,13.03
2023-03-05T05:11:00.725Z,13.27
2023-03-05T05:13:30.983Z,13.23
2023-03-05T05:15:59.109Z,13.04
2023-03-05T05:18:27.501Z,13.16
2023-03-05T05:20:55.632Z,13.16
2023-03-05T05:23:23.524Z,12.74
2023-03-05T05:25:58.019Z,13.10
2023-03-05T05:28:26.086Z,12.86
2023-03-05T05:30:55.934Z,13.04
2023-03-05T05:33:24.816Z,12.97
2023-03-05T05:35:53.018Z,12.88
2023-03-05T05:38:21.226Z,13.08
2023-03-05T05:40:49.130Z,13.19
2023-03-05T05:43:17.130Z,13.38
2023-03-05T05:45:45.208Z,13.07
2023-03-05T05:48:14.794Z,13.08
2023-03-05T05:50:42.700Z,13.35
2023-03-05T05:53:10.634Z,13.24
2023-03-05T05:55:41.317Z,13.17
2023-03-05T05:58:09.426Z,12.92
2023-03-05T06:00:37.411Z,13.26
2023-03-05T06:03:05.620Z,13.19
2023-03-05T06:05:35.130Z,13.39
2023-03-05T06:08:03.359Z,13.04
2023-03-05T06:10:31.294Z,13.25
2023-03-05T06:12:59.295Z,13.41
2023-03-05T06:15:27.364Z,13.66
2023-03-05T06:17:55.311Z,13.36
2023-03-05T06:20:23.354Z,13.70
2023-03-05T06:22:52.675Z,13.81
2023-03-05T06:25:20.666Z,13.36
2023-03-05T06:27:48.620Z,13.24
2023-03-05T06:30:16.910Z,13.29
2023-03-05T06:32:44.844Z,13.43
2023-03-05T06:35:14.103Z,13.21
2023-03-05T06:37:42.011Z,13.39
2023-03-05T06:40:13.143Z,13.62
2023-03-05T06:42:41.143Z,13.20
2023-03-05T06:45:10.695Z,13.55
2023-03-05T06:47:38.743Z,13.34
2023-03-05T06:50:07.988Z,13.50
2023-03-05T06:52:36.048Z,13.75
2023-03-05T06:55:04.688Z,13.55
2023-03-05T06:57:34.380Z,13.22
2023-03-05T07:00:03.531Z,13.33
2023-03-05T07:02:31.883Z,13.55
2023-03-05T07:04:59.884Z,13.60
2023-03-05T07:07:27.991Z,13.67
2023-03-05T07:09:56.019Z,13.56
2023-03-05T07:12:24.002Z,13.37
2023-03-05T07:14:53.381Z,13.23
2023-03-05T07:17:21.293Z,13.19
2023-03-05T07:19:49.210Z,13.44
2023-03-05T07:22:17.341Z,13.16
2023-03-05T07:24:45.292Z,13.35
2023-03-05T07:27:13.407Z,13.08
2023-03-05T07:29:41.434Z,13.12
2023-03-05T07:32:10.878Z,13.50
2023-03-05T07:34:38.925Z,13.16
2023-03-05T07:37:06.902Z,13.05
2023-03-05T07:39:34.958Z,13.26
2023-03-05T07:42:03.191Z,13.45
2023-03-05T07:44:48.092Z,13.41
2023-03-05T07:47:17.652Z,13.09
2023-03-05T07:49:45.677Z,12.89
2023-03-05T07:52:13.662Z,13.04
2023-03-05T07:54:41.734Z,13.36
2023-03-05T07:57:12.531Z,12.97
2023-03-05T07:59:40.878Z,12.88
2023-03-05T08:02:08.968Z,12.93
2023-03-05T08:04:38.598Z,12.90
2023-03-05T08:07:06.709Z,12.99
2023-03-05T08:09:34.780Z,13.29
2023-03-05T08:12:02.758Z,13.35
2023-03-05T08:14:30.737Z,13.36
2023-03-05T08:16:58.744Z,13.20
2023-03-05T08:19:26.851Z,13.23
2023-03-05T08:21:56.529Z,13.06
2023-03-05T08:24:29.834Z,12.97
2023-03-05T08:26:58.307Z,12.99
2023-03-05T08:29:28.830Z,12.88
2023-03-05T08:31:56.811Z,13.39
2023-03-05T08:34:24.889Z,13.32
2023-03-05T08:36:52.845Z,12.90
2023-03-05T08:39:22.441Z,13.25
2023-03-05T08:41:50.338Z,13.27
2023-03-05T08:44:18.343Z,12.91
2023-03-05T08:46:46.381Z,12.97
2023-03-05T08:49:14.398Z,13.25
2023-03-05T08:51:43.650Z,13.31
2023-03-05T08:54:11.841Z,12.89
2023-03-05T08:56:41.368Z,12.92
2023-03-05T08:59:10.175Z,13.03
2023-03-05T09:01:39.085Z,13.07
2023-03-05T09:04:07.041Z,13.33
2023-03-05T09:06:39.258Z,12.96
2023-03-05T09:09:08.588Z,13.36
2023-03-05T09:11:37.282Z,12.97
2023-03-05T09:14:08.299Z,12.97
2023-03-05T09:16:38.519Z,13.17
2023-03-05T09:19:06.503Z,13.11
2023-03-05T09:21:34.565Z,13.04
2023-03-05T09:24:02.717Z,13.02
2023-03-05T09:26:30.940Z,13.49
2023-03-05T09:28:59.367Z,13.19
2023-03-05T09:31:28.809Z,13.38
2023-03-05T09:33:56.798Z,12.91
2023-03-05T09:36:26.543Z,13.09
2023-03-05T09:38:55.039Z,12.83
2023-03-05T09:41:34.453Z,12.87
2023-03-05T09:44:12.798Z,13.09
2023-03-05T09:46:52.185Z,13.15
2023-03-05T09:49:31.866Z,12.86
2023-03-05T09:52:06.735Z,12.96
2023-03-05T09:54:40.831Z,12.74
2023-03-05T09:57:18.576Z,12.76
2023-03-05T09:59:51.557Z,13.05
2023-03-05T10:02:26.738Z,13.19
2023-03-05T10:04:58.911Z,13.15
2023-03-05T10:07:30.323Z,13.03
2023-03-05T10:10:02.525Z,12.84
2023-03-05T10:12:42.533Z,13.12
2023-03-05T10:15:15.054Z,12.63
2023-03-05T10:18:10.463Z,12.96
2023-03-05T10:20:56.097Z,12.66
2023-03-05T10:23:30.109Z,12.81
2023-03-05T10:26:08.435Z,13.03
2023-03-05T10:28:44.572Z,12.81
2023-03-05T10:31:31.660Z,13.17
2023-03-05T10:34:13.587Z,12.78
2023-03-05T10:36:58.242Z,13.04
2023-03-05T10:39:47.986Z,13.02
2023-03-05T10:42:23.674Z,12.75
2023-03-05T10:44:55.881Z,12.68
2023-03-05T10:47:27.842Z,12.60
2023-03-05T10:49:59.193Z,12.59
2023-03-05T10:52:32.726Z,13.56
2023-03-05T10:55:00.849Z,13.34
2023-03-05T10:57:31.882Z,13.57
2023-03-05T11:00:08.201Z,14.08
2023-03-05T11:02:55.143Z,14.00
2023-03-05T11:05:49.528Z,14.47
2023-03-05T11:08:27.600Z,15.49
2023-03-05T11:11:11.745Z,17.64
2023-03-05T11:13:51.055Z,19.57
2023-03-05T11:16:21.581Z,20.90
2023-03-05T11:18:50.452Z,22.16
2023-03-05T11:21:23.967Z,22.75
2023-03-05T11:24:06.482Z,23.46
2023-03-05T11:26:34.857Z,22.77
2023-03-05T11:29:04.933Z,21.70
2023-03-05T11:31:34.561Z,20.55
2023-03-05T11:34:04.437Z,19.90
2023-03-05T11:36:35.602Z,19.10
2023-03-05T11:39:12.535Z,18.22
2023-03-05T11:41:43.208Z,17.56
2023-03-05T11:44:15.255Z,16.97
2023-03-05T11:46:45.897Z,17.10
2023-03-05T11:49:17.774Z,16.70
2023-03-05T11:51:54.236Z,15.87
2023-03-05T11:54:27.640Z,15.74
2023-03-05T11:56:56.524Z,15.50
2023-03-05T11:59:29.466Z,15.14
2023-03-05T12:01:59.498Z,14.97
2023-03-05T12:04:28.335Z,15.08
2023-03-05T12:07:01.343Z,15.55
2023-03-05T12:09:40.897Z,15.95
2023-03-05T12:12:18.074Z,15.63
2023-03-05T12:14:51.753Z,15.68
2023-03-05T12:17:25.719Z,15.84
2023-03-05T12:19:59.748Z,15.42
2023-03-05T12:22:37.347Z,15.41
2023-03-05T12:25:28.478Z,15.32
2023-03-05T12:27:57.139Z,15.42
2023-03-05T12:30:56.394Z,15.18
2023-03-05T12:33:34.008Z,15.65
2023-03-05T12:36:37.392Z,15.54
2023-03-05T12:39:38.932Z,15.56
2023-03-05T12:42:45.867Z,15.72
2023-03-05T12:45:29.557Z,15.86
2023-03-05T12:48:43.540Z,16.20
2023-03-05T12:51:28.956Z,16.00
2023-03-05T12:53:58.046Z,15.89
2023-03-05T12:56:31.198Z,15.60
2023-03-05T12:59:02.864Z,15.77
2023-03-05T13:01:39.610Z,15.48
2023-03-05T13:04:15.140Z,15.76
2023-03-05T13:06:43.148Z,15.37
2023-03-05T13:09:18.514Z,15.58
2023-03-05T13:11:49.464Z,15.30
2023-03-05T13:14:39.054Z,15.18
2023-03-05T13:17:32.337Z,15.53
2023-03-05T13:20:01.540Z,15.60
2023-03-05T13:22:29.758Z,15.46
2023-03-05T13:25:14.924Z,15.57
2023-03-05T13:27:43.931Z,15.48
2023-03-05T13:30:24.729Z,15.31
2023-03-05T13:32:54.058Z,16.99
2023-03-05T13:35:22.558Z,17.59
2023-03-05T13:37:51.069Z,17.19
2023-03-05T13:40:25.218Z,17.10
2023-03-05T13:42:54.409Z,16.81
2023-03-05T13:45:27.307Z,16.66
2023-03-05T13:47:58.651Z,16.77
2023-03-05T13:50:29.860Z,16.58
2023-03-05T13:53:14.885Z,16.24
2023-03-05T13:55:42.980Z,16.58
2023-03-05T13:58:52.425Z,16.32
2023-03-05T14:01:29.328Z,15.94
2023-03-05T14:04:00.765Z,16.29
2023-03-05T14:06:30.992Z,15.73
2023-03-05T14:09:07.110Z,15.79
2023-03-05T14:11:35.831Z,16.00
2023-03-05T14:14:09.232Z,15.51
2023-03-05T14:16:38.714Z,15.58
2023-03-05T14:19:09.234Z,15.55
2023-03-05T14:21:48.900Z,15.45
2023-03-05T14:24:23.465Z,15.38
2023-03-05T14:26:53.845Z,15.72
2023-03-05T14:29:25.192Z,15.66
2023-03-05T14:31:57.160Z,15.27
2023-03-05T14:34:31.089Z,15.21
2023-03-05T14:37:03.199Z,15.39
2023-03-05T14:39:39.373Z,15.49
2023-03-05T14:42:27.420Z,15.75
2023-03-05T14:44:56.811Z,15.95
2023-03-05T14:47:27.680Z,15.91
2023-03-05T14:49:55.834Z,16.38
2023-03-05T14:52:26.447Z,15.95
2023-03-05T14:54:55.845Z,15.80
2023-03-05T14:57:27.773Z,15.79
2023-03-05T14:59:56.654Z,16.05
2023-03-05T15:02:27.663Z,15.98
2023-03-05T15:04:55.756Z,15.57
2023-03-05T15:07:28.006Z,15.35
2023-03-05T15:09:56.222Z,15.61
2023-03-05T15:12:24.772Z,15.78
2023-03-05T15:14:53.987Z,15.63
2023-03-05T15:17:23.532Z,15.46
2023-03-05T15:19:53.846Z,15.21
2023-03-05T15:22:21.787Z,15.46
2023-03-05T15:24:50.025Z,15.57
2023-03-05T15:27:17.933Z,15.46
2023-03-05T15:29:46.058Z,15.12
2023-03-05T15:32:14.045Z,15.38
2023-03-05T15:34:42.177Z,15.00
2023-03-05T15:37:11.901Z,15.25
2023-03-05T15:39:39.931Z,14.97
2023-03-05T15:42:08.363Z,14.82
2023-03-05T15:44:36.278Z,14.83
2023-03-05T15:47:04.349Z,14.65
2023-03-05T15:49:32.358Z,14.71
2023-03-05T15:52:00.432Z,14.93
2023-03-05T15:54:29.954Z,14.46
2023-03-05T15:56:57.967Z,14.51
2023-03-05T15:59:26.697Z,14.66
2023-03-05T16:01:54.862Z,14.58
2023-03-05T16:04:22.943Z,14.68
2023-03-05T16:06:51.609Z,14.90
2023-03-05T16:09:21.775Z,14.94
2023-03-05T16:11:51.624Z,14.55
2023-03-05T16:14:24.187Z,14.86
2023-03-05T16:16:56.355Z,14.65
2023-03-05T16:19:26.996Z,14.56
2023-03-05T16:21:54.998Z,14.70
2023-03-05T16:24:23.103Z,15.01
2023-03-05T16:26:52.504Z,15.14
2023-03-05T16:29:20.496Z,15.15
2023-03-05T16:31:48.374Z,14.73
2023-03-05T16:34:16.341Z,15.18
2023-03-05T16:36:49.057Z,15.13
2023-03-05T16:39:17.110Z,14.83
2023-03-05T16:41:45.087Z,14.97
2023-03-05T16:44:14.474Z,15.33
2023-03-05T16:46:43.969Z,14.91
2023-03-05T16:49:12.366Z,14.99
2023-03-05T16:51:40.344Z,14.98
2023-03-05T16:54:10.078Z,15.03
2023-03-05T16:56:38.261Z,15.51
2023-03-05T16:59:06.405Z,15.08
2023-03-05T17:01:35.814Z,15.52
2023-03-05T17:04:03.880Z,15.42
2023-03-05T17:06:33.244Z,15.27
2023-03-05T17:09:02.999Z,15.39
2023-03-05T17:11:31.485Z,15.42
2023-03-05T17:13:59.454Z,15.46
2023-03-05T17:16:27.556Z,15.60
2023-03-05T17:18:57.160Z,16.02
2023-03-05T17:21:25.157Z,16.18
2023-03-05T17:23:53.184Z,15.82
2023-03-05T17:26:21.984Z,16.08
2023-03-05T17:28:50.215Z,15.86
2023-03-05T17:31:18.303Z,16.04
2023-03-05T17:33:46.392Z,16.35
2023-03-05T17:36:16.892Z,16.43
2023-03-05T17:38:46.296Z,16.57
2023-03-05T17:41:15.178Z,16.29
2023-03-05T17:43:43.891Z,16.30
2023-03-05T17:46:12.766Z,16.38
2023-03-05T17:48:41.675Z,16.22
2023-03-05T17:51:12.801Z,16.26
2023-03-05T17:53:42.402Z,16.01
2023-03-05T17:56:12.138Z,15.93
2023-03-05T17:58:41.140Z,16.14
2023-03-05T18:01:10.186Z,15.69
2023-03-05T18:03:38.651Z,16.04
2023-03-05T18:06:07.856Z,15.87
2023-03-05T18:08:35.844Z,15.80
2023-03-05T18:11:05.455Z,15.73
2023-03-05T18:13:33.332Z,15.82
2023-03-05T18:16:01.503Z,16.20
2023-03-05T18:18:29.500Z,16.15
2023-03-05T18:20:57.525Z,16.34
2023-03-05T18:23:25.580Z,16.51
2023-03-05T18:25:53.639Z,15.96
2023-03-05T18:28:22.920Z,16.07
2023-03-05T18:30:50.981Z,16.16
2023-03-05T18:33:22.294Z,16.37
2023-03-05T18:35:52.309Z,16.38
2023-03-05T18:38:21.302Z,16.38
2023-03-05T18:40:51.275Z,15.94
2023-03-05T18:43:20.592Z,16.36
2023-03-05T18:45:50.755Z,16.06
2023-03-05T18:48:19.491Z,16.25
2023-03-05T18:50:47.800Z,16.11
2023-03-05T18:53:16.158Z,15.88
2023-03-05T18:55:44.937Z,16.09
2023-03-05T18:58:15.673Z,16.01
2023-03-05T19:00:44.924Z,15.78
2023-03-05T19:03:15.245Z,15.96
2023-03-05T19:05:43.591Z,15.76
2023-03-05T19:08:12.388Z,15.76
2023-03-05T19:10:40.448Z,16.06
2023-03-05T19:13:18.722Z,15.92
2023-03-05T19:15:46.773Z,15.96
2023-03-05T19:18:16.052Z,15.90
2023-03-05T19:20:44.004Z,15.92
2023-03-05T19:23:11.989Z,15.87
2023-03-05T19:25:41.633Z,15.36
2023-03-05T19:28:09.583Z,15.60
2023-03-05T19:30:38.645Z,15.58
2023-03-05T19:33:06.640Z,15.79
2023-03-05T19:35:36.151Z,15.40
2023-03-05T19:38:04.093Z,15.75
2023-03-05T19:40:32.055Z,15.78
2023-03-05T19:43:00.136Z,15.67
2023-03-05T19:45:28.218Z,15.95
2023-03-05T19:47:56.235Z,15.59
2023-03-05T19:50:24.370Z,15.80
2023-03-05T19:52:53.709Z,15.72
2023-03-05T19:55:21.903Z,15.52
2023-03-05T19:57:49.880Z,15.75
2023-03-05T20:00:18.701Z,15.91
2023-03-05T20:02:48.600Z,15.89
2023-03-05T20:05:16.584Z,15.55
2023-03-05T20:07:44.732Z,15.49
2023-03-05T20:10:14.534Z,15.36
2023-03-05T20:12:44.026Z,15.77
2023-03-05T20:15:12.179Z,15.38
2023-03-05T20:17:40.147Z,15.34
2023-03-05T20:20:09.398Z,15.67
2023-03-05T20:22:37.438Z,15.76
2023-03-05T20:25:06.864Z,15.29
2023-03-05T20:27:36.199Z,15.47
2023-03-05T20:30:05.226Z,15.93
2023-03-05T20:32:33.308Z,16.12
2023-03-05T20:35:01.315Z,15.96
2023-03-05T20:38:00.172Z,16.00
2023-03-05T20:40:28.483Z,16.08
2023-03-05T20:42:57.801Z,15.78
2023-03-05T20:45:25.805Z,16.15
2023-03-05T20:47:53.701Z,16.09
2023-03-05T20:50:22.396Z,16.08
2023-03-05T20:52:50.382Z,15.92
2023-03-05T20:55:18.296Z,15.61
2023-03-05T20:57:46.306Z,15.54
2023-03-05T21:00:16.771Z,15.77
2023-03-05T21:02:44.792Z,15.39
2023-03-05T21:05:13.319Z,15.71
2023-03-05T21:07:41.271Z,15.55
2023-03-05T21:10:09.742Z,15.29
2023-03-05T21:12:37.763Z,15.44
2023-03-05T21:15:06.771Z,15.48
2023-03-05T21:17:36.202Z,15.39
2023-03-05T21:20:05.742Z,15.02
2023-03-05T21:22:33.695Z,15.29
2023-03-05T21:25:21.973Z,15.00
2023-03-05T21:27:51.697Z,15.02
2023-03-05T21:30:20.523Z,14.83
2023-03-05T21:32:50.288Z,15.15
2023-03-05T21:35:19.560Z,14.86
2023-03-05T21:37:47.644Z,14.92
2023-03-05T21:40:17.427Z,14.94
2023-03-05T21:42:46.136Z,14.97
2023-03-05T21:45:15.963Z,15.44
2023-03-05T21:47:43.970Z,15.08
2023-03-05T21:50:14.986Z,15.06
2023-03-05T21:52:43.627Z,15.41
2023-03-05T21:55:14.162Z,15.43
2023-03-05T21:57:42.729Z,15.29
2023-03-05T22:00:12.451Z,15.38
2023-03-05T22:02:41.955Z,15.41
2023-03-05T22:05:15.505Z,15.04
2023-03-05T22:07:45.478Z,15.35
2023-03-05T22:10:15.168Z,15.04
2023-03-05T22:12:57.590Z,15.09
2023-03-05T22:15:26.791Z,15.45
2023-03-05T22:17:54.808Z,14.89
2023-03-05T22:20:23.000Z,15.16
2023-03-05T22:22:52.603Z,14.96
2023-03-05T22:25:20.673Z,15.04
2023-03-05T22:27:48.627Z,14.98
2023-03-05T22:30:16.688Z,14.94
2023-03-05T22:32:44.806Z,14.87
2023-03-05T22:35:15.041Z,14.80
2023-03-05T22:37:43.282Z,14.87
2023-03-05T22:40:16.053Z,14.85
2023-03-05T22:42:45.329Z,15.18
2023-03-05T22:45:14.232Z,15.10
2023-03-05T22:47:42.286Z,14.91
2023-03-05T22:50:11.586Z,14.87
2023-03-05T22:52:39.657Z,15.07
2023-03-05T22:55:08.343Z,14.79
2023-03-05T22:57:37.751Z,14.67
2023-03-05T23:00:08.890Z,14.67
2023-03-05T23:02:36.995Z,14.76
2023-03-05T23:05:05.468Z,14.68
2023-03-05T23:07:35.881Z,14.76
2023-03-05T23:10:06.651Z,14.97
2023-03-05T23:12:38.535Z,14.65
2023-03-05T23:15:10.552Z,14.80
2023-03-05T23:17:38.726Z,14.99
2023-03-05T23:20:10.272Z,14.98
2023-03-05T23:22:40.156Z,14.75
2023-03-05T23:25:08.902Z,15.05
2023-03-05T23:27:38.379Z,15.09
2023-03-05T23:30:16.430Z,14.81
2023-03-05T23:32:46.460Z,14.68
2023-03-05T23:35:16.641Z,14.76
2023-03-05T23:37:44.718Z,14.67
2023-03-05T23:40:16.076Z,14.57
2023-03-05T23:42:45.957Z,14.75
2023-03-05T23:45:15.930Z,14.81
2023-03-05T23:47:44.571Z,14.69
2023-03-05T23:50:14.692Z,14.74
2023-03-05T23:52:43.484Z,14.97
2023-03-05T23:55:16.080Z,14.64
2023-03-05T23:57:45.736Z,14.62
